PWSweather.com
Personal Weather Stations
Station Observations
CANDIOTINO
Barrio Candioti Norte, Santa FeAR 3000

Barrio Candioti NorteSanta FeAR 3000

Lat: -31.632778, Lon: -60.695556

Elevation: 69

Station Type: WH-1081

http://www.eltiempoensantafe.com.ar

High Low Average
Temperature 67.6°F19.8°C 52.0°F11.1°C 57.6°F14.2°C
Dew Point 50.2°F10.1°C 28.8°F-1.8°C 40.0°F4.4°C
Winds 16.8 mph 27.0 kmh 0.7 mph 1.1 kmh 7.0 mph SSW11.3 kmh SSW
Wind Gusts 26.6 mph42.8 kmh 3.1 mph5.0 kmh 16.0 mph25.7 kmh
Humidity 85% 24% 57%
Pressure 30.10 in1019.3 mb 29.75 in1007.5 mb -
Precipitation 0.00 in0.0 mm - -
Hour Temp Dew Point Humidity Winds Wind Gusts Pressure Precip Precip Rate Daily Precip Total
12:00 AM 56.7°F13.7°C 50.2°F10.1°C 79% 3.1 mph SW5.0 kmh SW 6.0 mph9.7 kmh 29.75 in1007.5 mb 0.00 in0.0 mm 0.00 in0.0 mm 0.00 in0.0 mm
12:15 AM 55.9°F13.3°C 49.5°F9.7°C 79% 2.2 mph SSE3.5 kmh SSE 6.9 mph11.1 kmh 29.76 in1007.8 mb 0.00 in0.0 mm 0.00 in0.0 mm 0.00 in0.0 mm
12:30 AM 55.4°F13.0°C 49.3°F9.6°C 80% 4.5 mph S7.2 kmh S 9.2 mph14.8 kmh 29.77 in1008.1 mb 0.00 in0.0 mm 0.00 in0.0 mm 0.00 in0.0 mm
12:45 AM 55.0°F12.8°C 49.7°F9.8°C 82% 6.9 mph S11.1 kmh S 12.1 mph19.5 kmh 29.78 in1008.5 mb 0.00 in0.0 mm 0.00 in0.0 mm 0.00 in0.0 mm
01:00 AM 54.9°F12.7°C 49.5°F9.7°C 82% 5.4 mph S8.7 kmh S 12.1 mph19.5 kmh 29.78 in1008.5 mb 0.00 in0.0 mm 0.00 in0.0 mm 0.00 in0.0 mm
01:15 AM 54.7°F12.6°C 49.6°F9.8°C 83% 6.9 mph SSE11.1 kmh SSE 9.2 mph14.8 kmh 29.77 in1008.1 mb 0.00 in0.0 mm 0.00 in0.0 mm 0.00 in0.0 mm
01:30 AM 54.3°F12.4°C 49.3°F9.6°C 83% 5.4 mph S8.7 kmh S 12.1 mph19.5 kmh 29.78 in1008.5 mb 0.00 in0.0 mm 0.00 in0.0 mm 0.00 in0.0 mm
01:45 AM 54.0°F12.2°C 49.2°F9.6°C 84% 6.0 mph S9.7 kmh S 9.8 mph15.8 kmh 29.78 in1008.5 mb 0.00 in0.0 mm 0.00 in0.0 mm 0.00 in0.0 mm
02:00 AM 54.0°F12.2°C 49.6°F9.8°C 85% 6.9 mph S11.1 kmh S 13.0 mph20.9 kmh 29.77 in1008.1 mb 0.00 in0.0 mm 0.00 in0.0 mm 0.00 in0.0 mm
02:15 AM 54.0°F12.2°C 49.2°F9.6°C 84% 8.3 mph S13.4 kmh S 11.4 mph18.3 kmh 29.78 in1008.5 mb 0.00 in0.0 mm 0.00 in0.0 mm 0.00 in0.0 mm
02:30 AM 54.0°F12.2°C 48.9°F9.4°C 83% 5.4 mph S8.7 kmh S 14.5 mph23.3 kmh 29.79 in1008.8 mb 0.00 in0.0 mm 0.00 in0.0 mm 0.00 in0.0 mm
02:45 AM 53.6°F12.0°C 48.6°F9.2°C 83% 8.3 mph S13.4 kmh S 13.0 mph20.9 kmh 29.77 in1008.1 mb 0.00 in0.0 mm 0.00 in0.0 mm 0.00 in0.0 mm
03:00 AM 53.4°F11.9°C 48.4°F9.1°C 83% 6.9 mph S11.1 kmh S 10.7 mph17.2 kmh 29.79 in1008.8 mb 0.00 in0.0 mm 0.00 in0.0 mm 0.00 in0.0 mm
03:15 AM 53.6°F12.0°C 48.2°F9.0°C 82% 6.9 mph S11.1 kmh S 10.7 mph17.2 kmh 29.78 in1008.5 mb 0.00 in0.0 mm 0.00 in0.0 mm 0.00 in0.0 mm
03:30 AM 53.4°F11.9°C 48.4°F9.1°C 83% 6.9 mph SSE11.1 kmh SSE 11.4 mph18.3 kmh 29.78 in1008.5 mb 0.00 in0.0 mm 0.00 in0.0 mm 0.00 in0.0 mm
03:45 AM 53.4°F11.9°C 48.4°F9.1°C 83% 4.5 mph S7.2 kmh S 10.7 mph17.2 kmh 29.78 in1008.5 mb 0.00 in0.0 mm 0.00 in0.0 mm 0.00 in0.0 mm
04:00 AM 53.4°F11.9°C 48.1°F8.9°C 82% 4.5 mph S7.2 kmh S 7.6 mph12.2 kmh 29.77 in1008.1 mb 0.00 in0.0 mm 0.00 in0.0 mm 0.00 in0.0 mm
04:15 AM 53.6°F12.0°C 47.9°F8.8°C 81% 3.8 mph SSE6.1 kmh SSE 6.0 mph9.7 kmh 29.76 in1007.8 mb 0.00 in0.0 mm 0.00 in0.0 mm 0.00 in0.0 mm
04:30 AM 53.6°F12.0°C 47.9°F8.8°C 81% 1.6 mph S2.6 kmh S 5.4 mph8.7 kmh 29.75 in1007.5 mb 0.00 in0.0 mm 0.00 in0.0 mm 0.00 in0.0 mm
04:45 AM 53.8°F12.1°C 48.1°F8.9°C 81% 0.7 mph SSW1.1 kmh SSW 3.1 mph5.0 kmh 29.75 in1007.5 mb 0.00 in0.0 mm 0.00 in0.0 mm 0.00 in0.0 mm
05:00 AM 54.1°F12.3°C 48.4°F9.1°C 81% 7.6 mph SSW12.2 kmh SSW 15.2 mph24.5 kmh 29.78 in1008.5 mb 0.00 in0.0 mm 0.00 in0.0 mm 0.00 in0.0 mm
05:15 AM 53.6°F12.0°C 47.9°F8.8°C 81% 6.0 mph S9.7 kmh S 14.5 mph23.3 kmh 29.76 in1007.8 mb 0.00 in0.0 mm 0.00 in0.0 mm 0.00 in0.0 mm
05:30 AM 53.4°F11.9°C 48.4°F9.1°C 83% 7.6 mph S12.2 kmh S 15.2 mph24.5 kmh 29.77 in1008.1 mb 0.00 in0.0 mm 0.00 in0.0 mm 0.00 in0.0 mm
05:45 AM 53.6°F12.0°C 48.6°F9.2°C 83% 8.3 mph S13.4 kmh S 15.9 mph25.6 kmh 29.78 in1008.5 mb 0.00 in0.0 mm 0.00 in0.0 mm 0.00 in0.0 mm
06:00 AM 54.0°F12.2°C 48.9°F9.4°C 83% 6.9 mph SSW11.1 kmh SSW 15.9 mph25.6 kmh 29.78 in1008.5 mb 0.00 in0.0 mm 0.00 in0.0 mm 0.00 in0.0 mm
06:15 AM 54.0°F12.2°C 48.6°F9.2°C 82% 6.0 mph SSW9.7 kmh SSW 19.0 mph30.6 kmh 29.79 in1008.8 mb 0.00 in0.0 mm 0.00 in0.0 mm 0.00 in0.0 mm
06:30 AM 54.0°F12.2°C 48.3°F9.1°C 81% 6.9 mph S11.1 kmh S 15.9 mph25.6 kmh 29.79 in1008.8 mb 0.00 in0.0 mm 0.00 in0.0 mm 0.00 in0.0 mm
06:45 AM 53.6°F12.0°C 47.6°F8.7°C 80% 10.7 mph SW17.2 kmh SW 19.7 mph31.7 kmh 29.80 in1009.1 mb 0.00 in0.0 mm 0.00 in0.0 mm 0.00 in0.0 mm
07:00 AM 53.2°F11.8°C 47.9°F8.8°C 82% 7.6 mph S12.2 kmh S 16.8 mph27.0 kmh 29.80 in1009.1 mb 0.00 in0.0 mm 0.00 in0.0 mm 0.00 in0.0 mm
07:15 AM 53.1°F11.7°C 47.4°F8.6°C 81% 9.8 mph S15.8 kmh S 19.0 mph30.6 kmh 29.81 in1009.5 mb 0.00 in0.0 mm 0.00 in0.0 mm 0.00 in0.0 mm
07:30 AM 53.1°F11.7°C 47.4°F8.6°C 81% 6.0 mph S9.7 kmh S 16.8 mph27.0 kmh 29.82 in1009.8 mb 0.00 in0.0 mm 0.00 in0.0 mm 0.00 in0.0 mm
07:45 AM 53.2°F11.8°C 47.6°F8.7°C 81% 6.0 mph S9.7 kmh S 18.3 mph29.5 kmh 29.84 in1010.5 mb 0.00 in0.0 mm 0.00 in0.0 mm 0.00 in0.0 mm
08:00 AM 53.4°F11.9°C 47.7°F8.7°C 81% 3.8 mph SW6.1 kmh SW 13.0 mph20.9 kmh 29.85 in1010.8 mb 0.00 in0.0 mm 0.00 in0.0 mm 0.00 in0.0 mm
08:15 AM 53.2°F11.8°C 47.2°F8.4°C 80% 7.6 mph SW12.2 kmh SW 15.9 mph25.6 kmh 29.84 in1010.5 mb 0.00 in0.0 mm 0.00 in0.0 mm 0.00 in0.0 mm
08:30 AM 53.8°F12.1°C 47.4°F8.6°C 79% 6.9 mph SSW11.1 kmh SSW 15.2 mph24.5 kmh 29.86 in1011.2 mb 0.00 in0.0 mm 0.00 in0.0 mm 0.00 in0.0 mm
08:45 AM 53.6°F12.0°C 47.3°F8.5°C 79% 6.9 mph SSW11.1 kmh SSW 15.9 mph25.6 kmh 29.87 in1011.5 mb 0.00 in0.0 mm 0.00 in0.0 mm 0.00 in0.0 mm
09:00 AM 52.9°F11.6°C 47.5°F8.6°C 82% 4.5 mph WSW7.2 kmh WSW 14.5 mph23.3 kmh 29.89 in1012.2 mb 0.00 in0.0 mm 0.00 in0.0 mm 0.00 in0.0 mm
09:15 AM 52.7°F11.5°C 47.4°F8.6°C 82% 6.0 mph WSW9.7 kmh WSW 17.4 mph28.0 kmh 29.91 in1012.9 mb 0.00 in0.0 mm 0.00 in0.0 mm 0.00 in0.0 mm
09:30 AM 53.1°F11.7°C 48.0°F8.9°C 83% 8.3 mph WSW13.4 kmh WSW 14.5 mph23.3 kmh 29.93 in1013.5 mb 0.00 in0.0 mm 0.00 in0.0 mm 0.00 in0.0 mm
09:45 AM 53.8°F12.1°C 47.8°F8.8°C 80% 6.9 mph SW11.1 kmh SW 14.5 mph23.3 kmh 29.94 in1013.9 mb 0.00 in0.0 mm 0.00 in0.0 mm 0.00 in0.0 mm
10:00 AM 54.0°F12.2°C 46.2°F7.9°C 75% 6.0 mph SW9.7 kmh SW 16.8 mph27.0 kmh 29.96 in1014.6 mb 0.00 in0.0 mm 0.00 in0.0 mm 0.00 in0.0 mm
10:15 AM 54.0°F12.2°C 44.0°F6.7°C 69% 9.8 mph SW15.8 kmh SW 17.4 mph28.0 kmh 29.98 in1015.2 mb 0.00 in0.0 mm 0.00 in0.0 mm 0.00 in0.0 mm
10:30 AM 53.2°F11.8°C 43.0°F6.1°C 68% 5.4 mph SW8.7 kmh SW 18.3 mph29.5 kmh 29.98 in1015.2 mb 0.00 in0.0 mm 0.00 in0.0 mm 0.00 in0.0 mm
10:45 AM 52.5°F11.4°C 43.4°F6.3°C 71% 6.0 mph S9.7 kmh S 17.4 mph28.0 kmh 29.98 in1015.2 mb 0.00 in0.0 mm 0.00 in0.0 mm 0.00 in0.0 mm
11:00 AM 54.0°F12.2°C 42.5°F5.8°C 65% 6.0 mph SW9.7 kmh SW 15.9 mph25.6 kmh 29.99 in1015.6 mb 0.00 in0.0 mm 0.00 in0.0 mm 0.00 in0.0 mm
11:15 AM 55.4°F13.0°C 40.4°F4.7°C 57% 7.6 mph S12.2 kmh S 25.9 mph41.7 kmh 29.99 in1015.6 mb 0.00 in0.0 mm 0.00 in0.0 mm 0.00 in0.0 mm
11:30 AM 56.1°F13.4°C 40.6°F4.8°C 56% 7.6 mph S12.2 kmh S 21.3 mph34.3 kmh 29.99 in1015.6 mb 0.00 in0.0 mm 0.00 in0.0 mm 0.00 in0.0 mm
11:45 AM 57.2°F14.0°C 40.2°F4.6°C 53% 7.6 mph S12.2 kmh S 20.6 mph33.2 kmh 30.00 in1015.9 mb 0.00 in0.0 mm 0.00 in0.0 mm 0.00 in0.0 mm
12:00 PM 59.2°F15.1°C 39.0°F3.9°C 47% 11.4 mph SSW18.3 kmh SSW 22.1 mph35.6 kmh 30.00 in1015.9 mb 0.00 in0.0 mm 0.00 in0.0 mm 0.00 in0.0 mm
12:15 PM 59.2°F15.1°C 39.0°F3.9°C 47% 5.4 mph SSW8.7 kmh SSW 18.3 mph29.5 kmh 30.01 in1016.3 mb 0.00 in0.0 mm 0.00 in0.0 mm 0.00 in0.0 mm
12:30 PM 60.3°F15.7°C 39.4°F4.1°C 46% 10.7 mph SW17.2 kmh SW 20.6 mph33.2 kmh 30.00 in1015.9 mb 0.00 in0.0 mm 0.00 in0.0 mm 0.00 in0.0 mm
12:45 PM 61.3°F16.3°C 38.1°F3.4°C 42% 6.0 mph SW9.7 kmh SW 18.3 mph29.5 kmh 30.00 in1015.9 mb 0.00 in0.0 mm 0.00 in0.0 mm 0.00 in0.0 mm
01:00 PM 62.8°F17.1°C 37.5°F3.1°C 39% 11.4 mph SSW18.3 kmh SSW 19.7 mph31.7 kmh 29.99 in1015.6 mb 0.00 in0.0 mm 0.00 in0.0 mm 0.00 in0.0 mm
01:15 PM 63.3°F17.4°C 37.3°F2.9°C 38% 13.0 mph S20.9 kmh S 20.6 mph33.2 kmh 29.99 in1015.6 mb 0.00 in0.0 mm 0.00 in0.0 mm 0.00 in0.0 mm
01:30 PM 63.0°F17.2°C 34.9°F1.6°C 35% 16.8 mph S27.0 kmh S 22.8 mph36.7 kmh 29.99 in1015.6 mb 0.00 in0.0 mm 0.00 in0.0 mm 0.00 in0.0 mm
01:45 PM 63.3°F17.4°C 36.6°F2.6°C 37% 8.3 mph S13.4 kmh S 23.5 mph37.8 kmh 29.99 in1015.6 mb 0.00 in0.0 mm 0.00 in0.0 mm 0.00 in0.0 mm
02:00 PM 63.9°F17.7°C 34.2°F1.2°C 33% 13.6 mph SSE21.9 kmh SSE 26.6 mph42.8 kmh 29.98 in1015.2 mb 0.00 in0.0 mm 0.00 in0.0 mm 0.00 in0.0 mm
02:15 PM 64.6°F18.1°C 36.3°F2.4°C 35% 10.7 mph S17.2 kmh S 22.1 mph35.6 kmh 29.98 in1015.2 mb 0.00 in0.0 mm 0.00 in0.0 mm 0.00 in0.0 mm
02:30 PM 65.5°F18.6°C 37.1°F2.8°C 35% 14.5 mph S23.3 kmh S 22.8 mph36.7 kmh 29.97 in1014.9 mb 0.00 in0.0 mm 0.00 in0.0 mm 0.00 in0.0 mm
02:45 PM 65.5°F18.6°C 31.5°F-0.3°C 28% 10.7 mph S17.2 kmh S 22.1 mph35.6 kmh 29.98 in1015.2 mb 0.00 in0.0 mm 0.00 in0.0 mm 0.00 in0.0 mm
03:00 PM 65.5°F18.6°C 33.3°F0.7°C 30% 12.1 mph S19.5 kmh S 22.8 mph36.7 kmh 29.97 in1014.9 mb 0.00 in0.0 mm 0.00 in0.0 mm 0.00 in0.0 mm
03:15 PM 65.8°F18.8°C 31.8°F-0.1°C 28% 9.8 mph S15.8 kmh S 19.0 mph30.6 kmh 29.97 in1014.9 mb 0.00 in0.0 mm 0.00 in0.0 mm 0.00 in0.0 mm
03:30 PM 66.2°F19.0°C 31.3°F-0.4°C 27% 13.0 mph S20.9 kmh S 19.7 mph31.7 kmh 29.96 in1014.6 mb 0.00 in0.0 mm 0.00 in0.0 mm 0.00 in0.0 mm
03:45 PM 66.9°F19.4°C 30.0°F-1.1°C 25% 12.1 mph S19.5 kmh S 19.7 mph31.7 kmh 29.96 in1014.6 mb 0.00 in0.0 mm 0.00 in0.0 mm 0.00 in0.0 mm
04:00 PM 67.6°F19.8°C 30.6°F-0.8°C 25% 6.0 mph SSW9.7 kmh SSW 19.0 mph30.6 kmh 29.96 in1014.6 mb 0.00 in0.0 mm 0.00 in0.0 mm 0.00 in0.0 mm
04:15 PM 67.3°F19.6°C 29.3°F-1.5°C 24% 6.0 mph S9.7 kmh S 20.6 mph33.2 kmh 29.96 in1014.6 mb 0.00 in0.0 mm 0.00 in0.0 mm 0.00 in0.0 mm
04:30 PM 66.7°F19.3°C 28.8°F-1.8°C 24% 6.0 mph SSW9.7 kmh SSW 22.8 mph36.7 kmh 29.97 in1014.9 mb 0.00 in0.0 mm 0.00 in0.0 mm 0.00 in0.0 mm
04:45 PM 66.7°F19.3°C 29.8°F-1.2°C 25% 7.6 mph SSW12.2 kmh SSW 20.6 mph33.2 kmh 29.96 in1014.6 mb 0.00 in0.0 mm 0.00 in0.0 mm 0.00 in0.0 mm
05:00 PM 64.8°F18.2°C 30.9°F-0.6°C 28% 6.9 mph WSW11.1 kmh WSW 19.0 mph30.6 kmh 29.98 in1015.2 mb 0.00 in0.0 mm 0.00 in0.0 mm 0.00 in0.0 mm
05:15 PM 66.2°F19.0°C 30.3°F-0.9°C 26% 5.4 mph SW8.7 kmh SW 15.9 mph25.6 kmh 29.97 in1014.9 mb 0.00 in0.0 mm 0.00 in0.0 mm 0.00 in0.0 mm
05:30 PM 67.1°F19.5°C 30.1°F-1.1°C 25% 6.9 mph SW11.1 kmh SW 17.4 mph28.0 kmh 29.97 in1014.9 mb 0.00 in0.0 mm 0.00 in0.0 mm 0.00 in0.0 mm
05:45 PM 66.2°F19.0°C 29.4°F-1.4°C 25% 5.4 mph WSW8.7 kmh WSW 21.3 mph34.3 kmh 29.98 in1015.2 mb 0.00 in0.0 mm 0.00 in0.0 mm 0.00 in0.0 mm
06:00 PM 65.7°F18.7°C 29.9°F-1.2°C 26% 4.5 mph SW7.2 kmh SW 23.5 mph37.8 kmh 29.98 in1015.2 mb 0.00 in0.0 mm 0.00 in0.0 mm 0.00 in0.0 mm
06:15 PM 64.9°F18.3°C 31.1°F-0.5°C 28% 6.0 mph SW9.7 kmh SW 15.2 mph24.5 kmh 29.98 in1015.2 mb 0.00 in0.0 mm 0.00 in0.0 mm 0.00 in0.0 mm
06:30 PM 63.0°F17.2°C 31.9°F-0.1°C 31% 3.8 mph SW6.1 kmh SW 9.8 mph15.8 kmh 30.00 in1015.9 mb 0.00 in0.0 mm 0.00 in0.0 mm 0.00 in0.0 mm
06:45 PM 62.1°F16.7°C 31.9°F-0.1°C 32% 3.8 mph SW6.1 kmh SW 15.9 mph25.6 kmh 30.00 in1015.9 mb 0.00 in0.0 mm 0.00 in0.0 mm 0.00 in0.0 mm
07:00 PM 61.2°F16.2°C 31.8°F-0.1°C 33% 7.6 mph WSW12.2 kmh WSW 15.9 mph25.6 kmh 30.01 in1016.3 mb 0.00 in0.0 mm 0.00 in0.0 mm 0.00 in0.0 mm
07:15 PM 60.6°F15.9°C 32.8°F0.4°C 35% 6.0 mph WSW9.7 kmh WSW 15.2 mph24.5 kmh 30.02 in1016.6 mb 0.00 in0.0 mm 0.00 in0.0 mm 0.00 in0.0 mm
07:30 PM 59.9°F15.5°C 32.9°F0.5°C 36% 6.9 mph SW11.1 kmh SW 17.4 mph28.0 kmh 30.02 in1016.6 mb 0.00 in0.0 mm 0.00 in0.0 mm 0.00 in0.0 mm
07:45 PM 59.2°F15.1°C 32.3°F0.2°C 36% 6.0 mph SW9.7 kmh SW 12.1 mph19.5 kmh 30.02 in1016.6 mb 0.00 in0.0 mm 0.00 in0.0 mm 0.00 in0.0 mm
08:00 PM 59.0°F15.0°C 31.4°F-0.3°C 35% 5.4 mph W8.7 kmh W 14.5 mph23.3 kmh 30.03 in1016.9 mb 0.00 in0.0 mm 0.00 in0.0 mm 0.00 in0.0 mm
08:15 PM 58.5°F14.7°C 32.3°F0.2°C 37% 5.4 mph W8.7 kmh W 15.2 mph24.5 kmh 30.04 in1017.3 mb 0.00 in0.0 mm 0.00 in0.0 mm 0.00 in0.0 mm
08:30 PM 58.3°F14.6°C 32.1°F0.1°C 37% 5.4 mph SW8.7 kmh SW 15.2 mph24.5 kmh 30.04 in1017.3 mb 0.00 in0.0 mm 0.00 in0.0 mm 0.00 in0.0 mm
08:45 PM 58.1°F14.5°C 31.3°F-0.4°C 36% 6.0 mph WSW9.7 kmh WSW 12.1 mph19.5 kmh 30.05 in1017.6 mb 0.00 in0.0 mm 0.00 in0.0 mm 0.00 in0.0 mm
09:00 PM 57.9°F14.4°C 31.1°F-0.5°C 36% 7.6 mph WSW12.2 kmh WSW 13.6 mph21.9 kmh 30.05 in1017.6 mb 0.00 in0.0 mm 0.00 in0.0 mm 0.00 in0.0 mm
09:15 PM 57.4°F14.1°C 31.3°F-0.4°C 37% 6.0 mph SW9.7 kmh SW 17.4 mph28.0 kmh 30.06 in1017.9 mb 0.00 in0.0 mm 0.00 in0.0 mm 0.00 in0.0 mm
09:30 PM 56.7°F13.7°C 32.0°F0.0°C 39% 3.1 mph W5.0 kmh W 13.0 mph20.9 kmh 30.07 in1018.3 mb 0.00 in0.0 mm 0.00 in0.0 mm 0.00 in0.0 mm
09:45 PM 55.9°F13.3°C 32.0°F0.0°C 40% 5.4 mph WSW8.7 kmh WSW 12.1 mph19.5 kmh 30.07 in1018.3 mb 0.00 in0.0 mm 0.00 in0.0 mm 0.00 in0.0 mm
10:00 PM 55.0°F12.8°C 31.8°F-0.1°C 41% 5.4 mph SW8.7 kmh SW 13.0 mph20.9 kmh 30.07 in1018.3 mb 0.00 in0.0 mm 0.00 in0.0 mm 0.00 in0.0 mm
10:15 PM 54.1°F12.3°C 31.6°F-0.2°C 42% 4.5 mph SW7.2 kmh SW 9.8 mph15.8 kmh 30.08 in1018.6 mb 0.00 in0.0 mm 0.00 in0.0 mm 0.00 in0.0 mm
10:30 PM 54.0°F12.2°C 31.4°F-0.3°C 42% 4.5 mph SW7.2 kmh SW 12.1 mph19.5 kmh 30.08 in1018.6 mb 0.00 in0.0 mm 0.00 in0.0 mm 0.00 in0.0 mm
10:45 PM 53.8°F12.1°C 31.2°F-0.4°C 42% 4.5 mph W7.2 kmh W 13.0 mph20.9 kmh 30.09 in1019.0 mb 0.00 in0.0 mm 0.00 in0.0 mm 0.00 in0.0 mm
11:00 PM 53.4°F11.9°C 31.5°F-0.3°C 43% 4.5 mph WSW7.2 kmh WSW 12.1 mph19.5 kmh 30.09 in1019.0 mb 0.00 in0.0 mm 0.00 in0.0 mm 0.00 in0.0 mm
11:15 PM 52.9°F11.6°C 31.6°F-0.2°C 44% 2.2 mph SSW3.5 kmh SSW 9.8 mph15.8 kmh 30.10 in1019.3 mb 0.00 in0.0 mm 0.00 in0.0 mm 0.00 in0.0 mm
11:30 PM 52.2°F11.2°C 31.5°F-0.3°C 45% 6.0 mph SW9.7 kmh SW 9.2 mph14.8 kmh 30.09 in1019.0 mb 0.00 in0.0 mm 0.00 in0.0 mm 0.00 in0.0 mm
11:45 PM 52.0°F11.1°C 32.4°F0.2°C 47% 6.0 mph SW9.7 kmh SW 10.7 mph17.2 kmh 30.10 in1019.3 mb 0.00 in0.0 mm 0.00 in0.0 mm 0.00 in0.0 mm